Time;durP1;ratioP1;P1;durP2;ratioP2;P2;SDS_P1;SDS_P2;PMS_P1;PMS_P2;Temp;Humidity;BMP_temperature;BMP_pressure;BME280_temperature;BME280_humidity;BME280_pressure;Samples;Min_cycle;Max_cycle;Signal;HPM_P1;HPM_P2
2022/09/21 00:01:25;;;;;;;0.40;0.40;;;6.30;99.90;;;;;;5069741;28;20466;-70
2022/09/21 00:04:02;;;;;;;0.47;0.47;;;6.20;99.90;;;;;;5069433;28;20461;-70
2022/09/21 00:06:32;;;;;;;0.45;0.45;;;6.20;99.90;;;;;;5069927;28;20506;-71
2022/09/21 00:08:59;;;;;;;0.52;0.38;;;6.10;99.90;;;;;;5069737;28;20432;-70
2022/09/21 00:11:29;;;;;;;0.40;0.32;;;6.00;99.90;;;;;;5062297;28;20953;-70
2022/09/21 00:13:59;;;;;;;0.25;0.25;;;6.00;99.90;;;;;;5068587;28;20925;-70
2022/09/21 00:16:27;;;;;;;0.55;0.55;;;5.80;99.90;;;;;;5069801;28;20435;-70
2022/09/21 00:18:54;;;;;;;0.60;0.50;;;5.70;99.90;;;;;;5069732;28;21037;-70
2022/09/21 00:21:23;;;;;;;0.35;0.35;;;5.50;99.90;;;;;;5069433;28;20463;-70
2022/09/21 00:23:50;;;;;;;0.45;0.45;;;5.40;99.90;;;;;;5069402;28;20427;-70
2022/09/21 00:26:19;;;;;;;0.60;0.60;;;5.30;99.90;;;;;;5069785;28;20436;-70
2022/09/21 00:28:54;;;;;;;0.40;0.40;;;5.30;99.90;;;;;;5072973;28;20423;-70
2022/09/21 00:31:22;;;;;;;0.40;0.40;;;5.20;99.90;;;;;;5073763;28;20435;-69
2022/09/21 00:33:50;;;;;;;0.40;0.40;;;5.30;99.90;;;;;;5073400;28;20439;-69
2022/09/21 00:36:19;;;;;;;0.40;0.40;;;5.30;99.90;;;;;;5073376;28;20449;-69
2022/09/21 00:38:50;;;;;;;0.60;0.60;;;5.30;99.90;;;;;;5072402;28;21188;-70
2022/09/21 00:41:19;;;;;;;0.20;0.20;;;5.20;99.90;;;;;;5073550;28;20493;-69
2022/09/21 00:43:48;;;;;;;0.57;0.57;;;5.20;99.90;;;;;;5072790;28;20423;-69
2022/09/21 00:46:29;;;;;;;0.25;0.25;;;5.20;99.90;;;;;;5073667;28;20431;-69
2022/09/21 00:48:57;;;;;;;0.55;0.40;;;5.10;99.90;;;;;;5073362;28;20946;-69
2022/09/21 00:51:24;;;;;;;0.70;0.50;;;5.10;99.90;;;;;;5073473;28;20427;-69
2022/09/21 00:53:56;;;;;;;0.28;0.28;;;5.20;99.90;;;;;;5073067;28;20427;-70
2022/09/21 00:56:24;;;;;;;0.35;0.35;;;5.10;99.90;;;;;;5073627;28;20422;-69
2022/09/21 00:58:53;;;;;;;0.32;0.32;;;5.10;99.90;;;;;;5072377;28;20953;-70
2022/09/21 01:01:26;;;;;;;0.33;0.33;;;5.10;99.90;;;;;;5072239;28;20460;-69
2022/09/21 01:03:56;;;;;;;0.30;0.30;;;5.10;99.90;;;;;;5072811;28;20419;-69
2022/09/21 01:06:24;;;;;;;0.38;0.38;;;5.20;99.90;;;;;;5073154;28;20945;-70
2022/09/21 01:08:57;;;;;;;0.43;0.43;;;5.20;99.90;;;;;;5072862;28;20932;-69
2022/09/21 01:11:29;;;;;;;0.40;0.20;;;5.20;99.90;;;;;;5072120;28;20443;-70
2022/09/21 01:14:08;;;;;;;0.17;0.17;;;5.20;99.90;;;;;;5072610;28;20434;-70
2022/09/21 01:17:02;;;;;;;0.30;0.30;;;5.30;99.90;;;;;;5072847;28;20427;-70
2022/09/21 01:20:02;;;;;;;0.30;0.30;;;5.40;99.90;;;;;;5072791;28;20427;-70
2022/09/21 01:22:51;;;;;;;0.40;0.40;;;5.40;99.90;;;;;;5072717;28;21127;-70
2022/09/21 01:25:37;;;;;;;0.20;0.20;;;5.40;99.90;;;;;;5071437;28;20902;-70
2022/09/21 01:28:34;;;;;;;6.20;0.30;;;5.40;99.90;;;;;;5072354;28;20817;-70
2022/09/21 01:31:06;;;;;;;0.57;0.57;;;5.40;99.90;;;;;;5072446;28;20774;-70
2022/09/21 01:33:37;;;;;;;0.50;0.50;;;5.40;99.90;;;;;;5072128;28;20451;-70
2022/09/21 01:36:19;;;;;;;0.47;0.47;;;5.30;99.90;;;;;;5072531;28;20439;-70
2022/09/21 01:39:09;;;;;;;0.50;0.50;;;5.20;99.90;;;;;;5071567;28;20489;-70
2022/09/21 01:41:40;;;;;;;0.20;0.20;;;5.30;99.90;;;;;;5070773;28;20930;-70
2022/09/21 01:44:14;;;;;;;0.50;0.50;;;5.30;99.90;;;;;;5070411;28;20424;-70
2022/09/21 01:46:41;;;;;;;0.40;0.40;;;5.30;99.90;;;;;;5072566;28;20493;-70
2022/09/21 01:49:14;;;;;;;0.30;0.30;;;5.40;99.90;;;;;;5072213;28;20438;-70
2022/09/21 01:51:47;;;;;;;0.70;0.70;;;5.40;99.90;;;;;;5072632;28;20439;-70
2022/09/21 01:54:20;;;;;;;0.40;0.40;;;5.40;99.90;;;;;;5070628;28;20481;-70
2022/09/21 01:57:36;;;;;;;0.45;0.45;;;5.50;99.90;;;;;;5071095;28;20432;-70
2022/09/21 02:00:07;;;;;;;0.60;0.60;;;5.50;99.90;;;;;;5062808;28;20432;-70
2022/09/21 02:02:38;;;;;;;0.52;0.52;;;5.50;99.90;;;;;;5071996;28;20428;-70
2022/09/21 02:05:06;;;;;;;0.60;0.40;;;5.50;99.90;;;;;;5071180;28;20484;-69
2022/09/21 02:07:34;;;;;;;0.52;0.52;;;5.50;99.90;;;;;;5071981;28;20436;-70
2022/09/21 02:10:02;;;;;;;0.47;0.47;;;5.50;99.90;;;;;;5071521;28;20424;-70
2022/09/21 02:12:32;;;;;;;0.30;0.30;;;5.40;99.90;;;;;;5071738;28;20801;-70
2022/09/21 02:15:01;;;;;;;0.20;0.20;;;5.40;99.90;;;;;;5071404;28;20427;-70
2022/09/21 02:17:38;;;;;;;0.32;0.32;;;5.30;99.90;;;;;;5071782;28;20919;-70
2022/09/21 02:20:16;;;;;;;0.50;0.50;;;5.30;99.90;;;;;;5071379;28;20906;-70
2022/09/21 02:23:17;;;;;;;0.57;0.57;;;5.30;99.90;;;;;;5071921;28;20419;-70
2022/09/21 02:26:06;;;;;;;0.43;0.43;;;5.20;99.90;;;;;;5071707;28;20431;-70
2022/09/21 02:28:46;;;;;;;0.30;0.30;;;5.20;99.90;;;;;;5071005;28;20485;-70
2022/09/21 02:31:41;;;;;;;0.50;0.50;;;5.20;99.90;;;;;;5071529;28;20431;-70
2022/09/21 02:34:31;;;;;;;0.55;0.55;;;5.00;99.90;;;;;;5068171;28;20428;-70
2022/09/21 02:37:27;;;;;;;0.90;0.65;;;4.90;99.90;;;;;;5068494;28;21120;-70
2022/09/21 02:39:59;;;;;;;0.50;0.50;;;4.80;99.90;;;;;;5059504;28;20511;-71
2022/09/21 02:42:32;;;;;;;0.90;0.57;;;4.80;99.90;;;;;;5068056;28;20431;-70
2022/09/21 02:45:14;;;;;;;1.75;0.88;;;4.70;99.90;;;;;;5051107;28;20428;-70
2022/09/21 02:48:06;;;;;;;1.05;0.95;;;4.60;99.90;;;;;;5056351;28;20425;-71
2022/09/21 02:50:52;;;;;;;0.70;0.70;;;4.40;99.90;;;;;;5047208;28;21116;-70
2022/09/21 02:53:24;;;;;;;0.60;0.60;;;4.30;99.90;;;;;;5047805;28;20456;-70
2022/09/21 02:55:53;;;;;;;1.10;0.82;;;4.20;99.90;;;;;;5048214;28;20472;-70
2022/09/21 02:58:25;;;;;;;0.50;0.30;;;4.20;99.90;;;;;;5048097;28;20509;-71
2022/09/21 03:00:53;;;;;;;0.20;0.20;;;4.20;99.90;;;;;;5048019;28;20432;-71
2022/09/21 03:03:24;;;;;;;0.80;0.40;;;4.20;99.90;;;;;;5047484;28;20551;-70
2022/09/21 03:05:53;;;;;;;0.50;0.50;;;4.20;99.90;;;;;;5047896;28;20426;-71
2022/09/21 03:08:20;;;;;;;0.50;0.50;;;4.20;99.90;;;;;;5047905;28;20501;-71
2022/09/21 03:10:49;;;;;;;0.30;0.30;;;4.30;99.90;;;;;;5049024;28;20441;-71
2022/09/21 03:13:18;;;;;;;0.40;0.40;;;4.30;99.90;;;;;;5050288;28;20441;-71
2022/09/21 03:15:46;;;;;;;1.27;0.60;;;4.30;99.90;;;;;;5051021;28;20918;-71
2022/09/21 03:18:15;;;;;;;0.77;0.77;;;4.40;99.90;;;;;;5050577;28;20440;-71
2022/09/21 03:20:46;;;;;;;0.40;0.40;;;4.40;99.90;;;;;;5050107;28;20933;-71
2022/09/21 03:23:13;;;;;;;0.40;0.40;;;4.40;99.90;;;;;;5050353;28;20431;-71
2022/09/21 03:25:44;;;;;;;0.50;0.50;;;4.30;99.90;;;;;;5050511;28;20425;-71
2022/09/21 03:28:12;;;;;;;0.30;0.30;;;4.20;99.90;;;;;;5050508;28;20458;-71
2022/09/21 03:30:39;;;;;;;0.38;0.38;;;4.10;99.90;;;;;;5069399;28;20451;-71
2022/09/21 03:33:07;;;;;;;0.40;0.40;;;4.00;99.90;;;;;;5068566;28;20432;-71
2022/09/21 03:35:33;;;;;;;0.60;0.60;;;3.90;99.90;;;;;;5070436;28;20442;-71
2022/09/21 03:38:01;;;;;;;0.50;0.50;;;3.80;99.90;;;;;;5070422;28;20527;-71
2022/09/21 03:40:31;;;;;;;0.70;0.70;;;3.80;99.90;;;;;;5068872;28;20485;-71
2022/09/21 03:42:58;;;;;;;0.38;0.38;;;3.90;99.90;;;;;;5069910;28;20438;-71
2022/09/21 03:45:26;;;;;;;0.37;0.37;;;3.90;99.90;;;;;;5070009;28;20423;-71
2022/09/21 03:47:57;;;;;;;0.60;0.45;;;3.90;99.90;;;;;;5069855;28;20432;-71
2022/09/21 03:50:27;;;;;;;0.55;0.52;;;3.90;99.90;;;;;;5070209;28;20428;-71
2022/09/21 03:52:55;;;;;;;0.50;0.50;;;3.90;99.90;;;;;;5070472;28;20455;-71
2022/09/21 03:55:22;;;;;;;0.38;0.38;;;3.90;99.90;;;;;;5069976;28;20440;-71
2022/09/21 03:57:51;;;;;;;0.40;0.40;;;3.90;99.90;;;;;;5069978;28;21127;-71
2022/09/21 04:00:19;;;;;;;0.40;0.40;;;3.90;99.90;;;;;;5068499;28;20923;-71
2022/09/21 04:02:46;;;;;;;0.73;0.63;;;3.80;99.90;;;;;;5069595;28;20435;-71
2022/09/21 04:05:14;;;;;;;1.00;0.70;;;3.80;99.90;;;;;;5069761;28;20423;-71
2022/09/21 04:07:44;;;;;;;0.20;0.20;;;3.70;99.90;;;;;;5070094;28;20427;-71
2022/09/21 04:10:14;;;;;;;0.40;0.40;;;3.80;99.90;;;;;;5070030;28;20485;-71
2022/09/21 04:12:42;;;;;;;0.40;0.40;;;3.80;99.90;;;;;;5069586;28;20431;-71
2022/09/21 04:15:20;;;;;;;0.30;0.30;;;3.90;99.90;;;;;;5069673;28;20431;-71
2022/09/21 04:17:50;;;;;;;0.57;0.57;;;3.90;99.90;;;;;;5069926;28;20960;-71
2022/09/21 04:20:17;;;;;;;0.55;0.55;;;4.00;99.90;;;;;;5069763;28;20424;-71
2022/09/21 04:22:45;;;;;;;0.47;0.47;;;4.00;99.90;;;;;;5069843;28;20802;-71
2022/09/21 04:25:14;;;;;;;0.40;0.40;;;4.00;99.90;;;;;;5069220;28;20813;-71
2022/09/21 04:27:44;;;;;;;0.70;0.70;;;4.00;99.90;;;;;;5069710;28;20893;-71
2022/09/21 04:30:15;;;;;;;0.68;0.68;;;3.90;99.90;;;;;;5069895;28;20431;-71
2022/09/21 04:32:42;;;;;;;0.80;0.40;;;3.80;99.90;;;;;;5069676;28;20522;-71
2022/09/21 04:35:09;;;;;;;1.10;0.87;;;3.70;99.90;;;;;;5069482;28;20496;-71
2022/09/21 04:37:36;;;;;;;0.40;0.40;;;3.60;99.90;;;;;;5069558;28;20427;-71
2022/09/21 04:40:03;;;;;;;0.40;0.32;;;3.50;99.90;;;;;;5069598;28;20473;-71
2022/09/21 04:42:31;;;;;;;0.60;0.60;;;3.50;99.90;;;;;;5069399;28;20491;-71
2022/09/21 04:44:58;;;;;;;0.60;0.55;;;3.50;99.90;;;;;;5069373;28;20910;-71
2022/09/21 04:47:29;;;;;;;0.43;0.43;;;3.50;99.90;;;;;;5069492;28;20424;-71
2022/09/21 04:50:08;;;;;;;0.90;0.70;;;3.40;99.90;;;;;;5069516;28;20477;-71
2022/09/21 04:52:35;;;;;;;0.60;0.60;;;3.40;99.90;;;;;;5069452;28;20428;-71
2022/09/21 04:55:02;;;;;;;0.60;0.60;;;3.30;99.90;;;;;;5068808;28;20921;-71
2022/09/21 04:57:29;;;;;;;0.45;0.45;;;3.20;99.90;;;;;;5068167;28;20446;-71
2022/09/21 04:59:56;;;;;;;0.35;0.35;;;3.10;99.90;;;;;;5069735;28;20834;-71
2022/09/21 05:02:22;;;;;;;0.60;0.60;;;3.10;99.90;;;;;;5069600;28;20454;-71
2022/09/21 05:04:49;;;;;;;4.40;0.88;;;3.10;99.90;;;;;;5068674;28;20424;-71
2022/09/21 05:07:17;;;;;;;0.30;0.30;;;3.20;99.90;;;;;;5069544;28;20432;-71
2022/09/21 05:10:02;;;;;;;3.15;0.82;;;3.20;99.90;;;;;;5069608;28;20427;-71
2022/09/21 05:12:33;;;;;;;0.57;0.57;;;3.30;99.90;;;;;;5069368;28;20423;-71
2022/09/21 05:15:03;;;;;;;0.57;0.57;;;3.30;99.90;;;;;;5072223;28;20450;-71
2022/09/21 05:17:32;;;;;;;1.10;0.90;;;3.50;99.90;;;;;;5073064;28;20567;-71
2022/09/21 05:19:59;;;;;;;0.43;0.43;;;3.50;99.90;;;;;;5073022;28;20427;-71
2022/09/21 05:22:28;;;;;;;0.38;0.38;;;3.60;99.90;;;;;;5073088;28;20455;-72
2022/09/21 05:24:55;;;;;;;0.50;0.50;;;3.80;99.90;;;;;;5072126;28;20431;-72
2022/09/21 05:27:21;;;;;;;0.50;0.50;;;3.80;99.90;;;;;;5072674;28;20435;-72
2022/09/21 05:29:49;;;;;;;0.40;0.32;;;3.90;99.90;;;;;;5072569;28;21104;-72
2022/09/21 05:32:15;;;;;;;1.50;0.73;;;4.00;99.90;;;;;;5072100;28;20984;-72
2022/09/21 05:34:57;;;;;;;0.43;0.43;;;4.10;99.90;;;;;;5072100;28;20444;-71
2022/09/21 05:37:49;;;;;;;0.50;0.50;;;4.20;99.90;;;;;;5071081;28;20438;-72
2022/09/21 05:40:16;;;;;;;0.30;0.30;;;4.30;99.90;;;;;;5072412;28;20432;-72
2022/09/21 05:42:46;;;;;;;0.30;0.30;;;4.30;99.90;;;;;;5072678;28;20435;-72
2022/09/21 05:45:15;;;;;;;1.40;0.90;;;4.40;99.90;;;;;;5070565;28;20430;-71
2022/09/21 05:48:15;;;;;;;0.30;0.30;;;4.40;99.90;;;;;;5071147;28;20431;-72
2022/09/21 05:50:48;;;;;;;0.63;0.63;;;4.50;99.90;;;;;;5071086;28;20450;-71
2022/09/21 05:53:36;;;;;;;0.40;0.40;;;4.70;99.90;;;;;;5070879;28;20435;-71
2022/09/21 05:56:20;;;;;;;0.50;0.50;;;4.90;99.90;;;;;;5072219;28;20434;-71
2022/09/21 05:59:05;;;;;;;3.00;0.50;;;5.10;99.90;;;;;;5072418;28;20902;-71
2022/09/21 06:01:55;;;;;;;0.77;0.77;;;5.30;99.90;;;;;;5072523;28;20468;-71
2022/09/21 06:04:25;;;;;;;0.40;0.40;;;5.50;99.90;;;;;;5071745;28;20430;-71
2022/09/21 06:06:51;;;;;;;1.73;0.60;;;5.60;99.90;;;;;;5071967;28;20424;-71
2022/09/21 06:09:19;;;;;;;0.40;0.40;;;5.70;99.90;;;;;;5071837;28;20514;-71
2022/09/21 06:11:46;;;;;;;0.60;0.60;;;5.80;99.90;;;;;;5072201;28;20442;-71
2022/09/21 06:14:13;;;;;;;0.47;0.47;;;6.00;99.90;;;;;;5071601;28;20785;-71
2022/09/21 06:16:41;;;;;;;0.47;0.47;;;6.30;99.90;;;;;;5072014;28;21094;-71
2022/09/21 06:19:12;;;;;;;0.50;0.50;;;6.90;99.90;;;;;;5071619;28;20439;-71
2022/09/21 06:21:41;;;;;;;0.30;0.30;;;7.60;99.90;;;;;;5070554;28;20451;-71
2022/09/21 06:24:10;;;;;;;0.70;0.70;;;;;;;;;;5071076;28;20430;-71
2022/09/21 06:26:41;;;;;;;1.10;0.60;;;8.30;99.90;;;;;;5071665;28;20473;-71
2022/09/21 06:29:08;;;;;;;0.60;0.60;;;;;;;;;;5071994;28;20423;-70
2022/09/21 06:31:37;;;;;;;0.88;0.88;;;;;;;;;;5071446;28;20487;-70
2022/09/21 06:34:04;;;;;;;0.50;0.50;;;9.20;99.90;;;;;;5069906;28;20477;-70
2022/09/21 06:36:31;;;;;;;0.80;0.80;;;9.90;99.90;;;;;;5071247;28;20484;-71
2022/09/21 06:39:00;;;;;;;0.60;0.60;;;10.00;99.90;;;;;;5071526;28;20428;-71
2022/09/21 06:41:27;;;;;;;0.95;0.95;;;10.50;99.90;;;;;;5071078;28;20423;-71
2022/09/21 06:43:55;;;;;;;1.73;1.40;;;10.50;99.90;;;;;;5071119;28;20427;-71
2022/09/21 06:46:23;;;;;;;1.10;1.00;;;10.60;99.90;;;;;;5071498;28;20889;-71
2022/09/21 06:48:49;;;;;;;0.88;0.85;;;10.70;99.90;;;;;;5071205;28;20423;-71
2022/09/21 06:51:16;;;;;;;0.80;0.80;;;11.00;99.90;;;;;;5071149;28;20829;-71
2022/09/21 06:53:46;;;;;;;1.10;1.00;;;11.40;99.90;;;;;;5070155;28;20925;-71
2022/09/21 06:56:13;;;;;;;0.77;0.77;;;11.70;99.90;;;;;;5069744;28;20430;-70
2022/09/21 06:58:40;;;;;;;1.40;1.00;;;12.00;99.90;;;;;;5070426;28;20433;-72
2022/09/21 07:01:11;;;;;;;0.90;0.90;;;12.50;99.90;;;;;;5070375;28;20458;-71
2022/09/21 07:03:41;;;;;;;0.93;0.93;;;12.90;99.90;;;;;;5069983;28;20474;-70
2022/09/21 07:06:10;;;;;;;1.08;0.98;;;13.40;99.90;;;;;;5070960;28;20430;-70
2022/09/21 07:08:38;;;;;;;3.05;1.13;;;;;;;;;;5070891;28;20427;-70
2022/09/21 07:11:26;;;;;;;1.25;1.25;;;13.40;99.90;;;;;;5070689;28;20473;-71
2022/09/21 07:13:53;;;;;;;1.08;1.00;;;14.10;99.90;;;;;;5068891;28;20510;-70
2022/09/21 07:16:20;;;;;;;1.67;1.20;;;;;;;;;;5071314;28;20431;-72
2022/09/21 07:18:47;;;;;;;1.75;1.40;;;13.40;99.90;;;;;;5069882;28;20432;-72
2022/09/21 07:21:14;;;;;;;1.10;1.00;;;13.90;99.90;;;;;;5070446;28;20434;-73
2022/09/21 07:23:43;;;;;;;0.98;0.98;;;13.80;99.90;;;;;;5067927;28;20488;-72
2022/09/21 07:26:12;;;;;;;1.15;1.15;;;13.90;99.90;;;;;;5070225;28;20427;-72
2022/09/21 07:28:39;;;;;;;1.30;1.20;;;14.00;99.90;;;;;;5068932;28;20428;-72
2022/09/21 07:31:08;;;;;;;0.93;0.93;;;;;;;;;;5070349;28;20426;-72
2022/09/21 07:33:39;;;;;;;1.08;1.08;;;;;;;;;;5069037;28;20502;-72
2022/09/21 07:36:09;;;;;;;1.33;1.23;;;14.20;99.90;;;;;;5070098;28;20829;-72
2022/09/21 07:38:43;;;;;;;1.47;1.37;;;14.80;99.90;;;;;;5070283;28;20431;-72
2022/09/21 07:41:13;;;;;;;1.37;1.10;;;14.70;99.90;;;;;;5069774;28;20458;-73
2022/09/21 07:43:40;;;;;;;1.85;1.30;;;14.70;99.90;;;;;;5068454;28;20771;-72
2022/09/21 07:46:10;;;;;;;1.13;1.10;;;14.60;99.90;;;;;;5070500;28;20428;-72
2022/09/21 07:48:37;;;;;;;1.27;1.20;;;14.80;99.90;;;;;;5070062;28;20522;-72
2022/09/21 07:51:09;;;;;;;1.20;1.20;;;15.20;99.90;;;;;;5069911;28;20434;-72
2022/09/21 07:53:37;;;;;;;1.13;1.10;;;15.20;99.90;;;;;;5069564;28;20454;-74
2022/09/21 07:56:10;;;;;;;0.95;0.95;;;15.20;99.90;;;;;;5070318;28;20427;-73
2022/09/21 08:01:23;;;;;;;1.20;0.88;;;15.30;99.90;;;;;;5069955;28;20463;-72
2022/09/21 08:03:52;;;;;;;0.90;0.90;;;15.30;99.90;;;;;;5068244;28;20444;-72
2022/09/21 08:06:19;;;;;;;1.23;1.13;;;15.30;99.90;;;;;;5069841;28;20438;-71
2022/09/21 08:08:47;;;;;;;0.82;0.82;;;15.10;99.90;;;;;;5068651;28;20454;-72
2022/09/21 08:11:15;;;;;;;1.23;1.13;;;14.90;99.90;;;;;;5070164;28;20427;-71
2022/09/21 08:13:52;;;;;;;0.88;0.88;;;15.00;99.90;;;;;;5051701;28;20431;-73
2022/09/21 08:16:19;;;;;;;1.20;0.80;;;15.20;99.90;;;;;;5069767;28;20434;-72
2022/09/21 08:18:46;;;;;;;0.50;0.50;;;14.90;99.90;;;;;;5069649;28;20438;-71
2022/09/21 08:21:17;;;;;;;0.73;0.73;;;14.70;99.90;;;;;;5069754;28;20459;-72
2022/09/21 08:23:43;;;;;;;0.70;0.70;;;14.60;99.90;;;;;;5069296;28;20441;-72
2022/09/21 08:26:17;;;;;;;0.60;0.60;;;14.70;99.90;;;;;;5069993;28;20787;-72
2022/09/21 08:28:50;;;;;;;0.70;0.70;;;14.90;99.90;;;;;;5068469;28;20432;-72
2022/09/21 08:31:19;;;;;;;0.60;0.60;;;14.70;99.90;;;;;;5069003;28;20511;-72
2022/09/21 08:33:46;;;;;;;2.10;0.97;;;14.40;99.90;;;;;;5069459;28;20539;-72
2022/09/21 08:36:13;;;;;;;0.60;0.60;;;15.00;99.90;;;;;;5069771;28;20929;-71
2022/09/21 08:38:40;;;;;;;1.13;0.88;;;15.50;99.90;;;;;;5069519;28;20516;-72
2022/09/21 08:41:45;;;;;;;0.93;0.93;;;15.90;99.90;;;;;;5069664;28;20446;-71
2022/09/21 08:44:18;;;;;;;0.40;0.40;;;;;;;;;;5068354;28;20445;-71
2022/09/21 08:46:51;;;;;;;0.43;0.43;;;15.90;99.90;;;;;;5069683;28;20794;-72
2022/09/21 08:49:24;;;;;;;0.30;0.30;;;16.00;99.90;;;;;;5071992;28;20431;-71
2022/09/21 08:51:59;;;;;;;0.50;0.50;;;15.80;99.90;;;;;;5073390;28;20952;-72
2022/09/21 08:54:50;;;;;;;1.63;0.43;;;16.00;99.90;;;;;;5072978;28;20906;-73
2022/09/21 08:57:18;;;;;;;0.52;0.52;;;16.30;99.90;;;;;;5072280;28;20427;-71
2022/09/21 08:59:47;;;;;;;0.33;0.33;;;16.20;99.90;;;;;;5072924;28;20450;-72
2022/09/21 09:02:32;;;;;;;0.30;0.30;;;16.20;99.90;;;;;;5073093;28;20423;-71
2022/09/21 09:05:27;;;;;;;0.40;0.40;;;16.50;99.90;;;;;;5072972;28;20428;-72
2022/09/21 09:08:25;;;;;;;0.20;0.20;;;16.90;99.90;;;;;;5073283;28;20420;-71
2022/09/21 09:11:00;;;;;;;0.57;0.55;;;17.20;99.90;;;;;;5072367;28;20423;-71
2022/09/21 09:13:55;;;;;;;0.60;0.30;;;17.30;99.90;;;;;;5072564;28;20427;-71
2022/09/21 09:16:48;;;;;;;4.68;1.95;;;17.50;99.90;;;;;;5072694;28;20504;-73
2022/09/21 09:19:33;;;;;;;2.30;1.80;;;17.50;99.90;;;;;;5073147;28;20431;-71
2022/09/21 09:22:03;;;;;;;1.95;0.90;;;16.80;99.90;;;;;;5072488;28;20434;-72
2022/09/21 09:24:51;;;;;;;0.30;0.30;;;16.70;99.90;;;;;;5072139;28;20435;-72
2022/09/21 09:27:32;;;;;;;0.30;0.30;;;16.40;99.90;;;;;;5072564;28;20427;-71
2022/09/21 09:30:17;;;;;;;0.35;0.35;;;16.70;99.90;;;;;;5072661;28;20773;-71
2022/09/21 09:32:44;;;;;;;0.30;0.30;;;17.20;99.90;;;;;;5072598;28;20428;-72
2022/09/21 09:35:32;;;;;;;0.33;0.33;;;17.30;99.90;;;;;;5072453;28;20428;-71
2022/09/21 09:38:10;;;;;;;1.23;0.50;;;16.90;99.90;;;;;;5072441;28;20440;-71
2022/09/21 09:41:00;;;;;;;0.20;0.20;;;17.20;99.90;;;;;;5072788;28;20820;-71
2022/09/21 09:43:29;;;;;;;0.20;0.20;;;17.40;99.90;;;;;;5072354;28;20465;-69
2022/09/21 09:46:10;;;;;;;0.22;0.22;;;17.80;99.90;;;;;;5072463;28;20432;-69
2022/09/21 09:48:59;;;;;;;0.25;0.25;;;18.00;99.90;;;;;;5072433;28;20427;-69
2022/09/21 09:51:26;;;;;;;0.20;0.20;;;18.00;99.90;;;;;;5072259;28;20984;-69
2022/09/21 09:53:58;;;;;;;0.40;0.40;;;18.00;99.90;;;;;;5071907;28;20427;-69
2022/09/21 09:56:25;;;;;;;1.00;0.30;;;18.30;99.90;;;;;;5072137;28;20430;-69
2022/09/21 09:58:56;;;;;;;0.20;0.20;;;18.50;99.90;;;;;;5071655;28;20485;-68
2022/09/21 10:01:41;;;;;;;0.30;0.30;;;18.30;99.90;;;;;;5072318;28;20427;-69
2022/09/21 10:04:13;;;;;;;0.20;0.20;;;18.40;99.90;;;;;;5071746;28;20528;-68
2022/09/21 10:06:41;;;;;;;0.20;0.20;;;18.60;99.90;;;;;;5072198;28;20435;-70
2022/09/21 10:09:31;;;;;;;0.57;0.40;;;19.00;99.90;;;;;;5070805;28;20450;-70
2022/09/21 10:12:14;;;;;;;0.30;0.30;;;18.80;99.90;;;;;;5071021;28;20427;-71
2022/09/21 10:14:51;;;;;;;0.30;0.30;;;18.90;99.90;;;;;;5070313;28;20435;-70
2022/09/21 10:17:19;;;;;;;0.40;0.40;;;19.40;99.90;;;;;;5071803;28;20432;-69
2022/09/21 10:19:57;;;;;;;0.20;0.20;;;19.70;99.90;;;;;;5071865;28;20419;-69
2022/09/21 10:22:24;;;;;;;0.28;0.28;;;19.90;99.90;;;;;;5071823;28;20419;-70
2022/09/21 10:24:53;;;;;;;0.30;0.30;;;19.50;99.90;;;;;;5071192;28;20439;-69
2022/09/21 10:27:33;;;;;;;0.30;0.30;;;19.60;99.90;;;;;;5071764;28;20434;-70
2022/09/21 10:30:00;;;;;;;0.20;0.20;;;19.70;99.90;;;;;;5070256;28;20473;-69
2022/09/21 10:32:30;;;;;;;0.50;0.30;;;19.60;99.90;;;;;;5071997;28;20424;-69
2022/09/21 10:35:04;;;;;;;0.20;0.20;;;19.60;99.90;;;;;;5070834;28;20448;-70
2022/09/21 10:38:16;;;;;;;2.30;0.28;;;19.50;99.90;;;;;;5066635;28;20433;-69
2022/09/21 10:40:49;;;;;;;0.20;0.20;;;19.30;99.90;;;;;;5051463;28;20506;-68
2022/09/21 10:43:23;;;;;;;0.20;0.20;;;19.10;99.90;;;;;;5050887;28;20436;-69
2022/09/21 10:45:54;;;;;;;0.30;0.30;;;18.80;99.90;;;;;;5051320;28;20425;-70
2022/09/21 10:48:23;;;;;;;0.20;0.20;;;18.80;99.90;;;;;;5050079;28;20436;-69
2022/09/21 10:50:55;;;;;;;0.50;0.30;;;18.30;99.90;;;;;;5051013;28;21041;-70
2022/09/21 10:53:30;;;;;;;0.30;0.30;;;18.60;99.90;;;;;;5050923;28;20433;-69
2022/09/21 10:56:06;;;;;;;0.23;0.23;;;18.90;99.90;;;;;;5051228;28;20441;-69
2022/09/21 10:59:20;;;;;;;0.20;0.20;;;18.70;99.90;;;;;;5051063;28;20433;-69
2022/09/21 11:01:50;;;;;;;0.30;0.30;;;19.30;99.90;;;;;;5051144;28;20433;-70
2022/09/21 11:04:35;;;;;;;0.60;0.20;;;19.10;99.90;;;;;;5050738;28;20915;-70
2022/09/21 11:07:13;;;;;;;1.10;0.30;;;19.70;99.90;;;;;;5050700;28;20425;-70
2022/09/21 11:09:52;;;;;;;0.22;0.22;;;20.00;99.90;;;;;;5050958;28;20432;-70
2022/09/21 11:12:46;;;;;;;0.25;0.25;;;20.60;99.90;;;;;;5049882;28;20432;-70
2022/09/21 11:15:16;;;;;;;1.00;0.40;;;20.40;99.90;;;;;;5050357;28;20433;-70
2022/09/21 11:17:57;;;;;;;0.93;0.40;;;20.30;99.90;;;;;;5050717;28;20892;-70
2022/09/21 11:20:29;;;;;;;0.35;0.35;;;20.80;99.90;;;;;;5048914;28;20486;-70
2022/09/21 11:23:37;;;;;;;0.20;0.20;;;20.90;99.90;;;;;;5050731;28;20486;-69
2022/09/21 11:26:20;;;;;;;5.93;2.33;;;21.30;99.90;;;;;;5023378;28;21094;-70
2022/09/21 11:28:55;;;;;;;3.15;1.27;;;20.70;99.90;;;;;;5050904;28;20425;-69
2022/09/21 11:31:24;;;;;;;1.23;0.80;;;20.10;99.90;;;;;;5049306;28;20432;-69
2022/09/21 11:34:19;;;;;;;1.63;1.25;;;20.50;99.90;;;;;;5052037;28;20502;-70
2022/09/21 11:36:58;;;;;;;0.20;0.20;;;20.30;99.90;;;;;;5070654;28;20490;-70
2022/09/21 11:39:28;;;;;;;0.17;0.17;;;20.40;99.90;;;;;;5069065;28;20423;-70
2022/09/21 11:42:21;;;;;;;0.20;0.20;;;20.10;99.90;;;;;;5070159;28;20434;-69
2022/09/21 11:44:55;;;;;;;0.40;0.28;;;19.70;99.90;;;;;;5061345;28;20435;-69
2022/09/21 11:47:48;;;;;;;0.38;0.38;;;20.10;99.90;;;;;;5070398;28;20509;-70
2022/09/21 11:50:34;;;;;;;0.20;0.20;;;20.20;99.90;;;;;;5070191;28;20431;-70
2022/09/21 11:53:19;;;;;;;0.20;0.20;;;20.30;99.90;;;;;;5068909;28;20436;-69
2022/09/21 11:56:14;;;;;;;0.93;0.22;;;20.70;99.90;;;;;;5069453;28;20523;-69
2022/09/21 11:59:05;;;;;;;0.20;0.20;;;20.90;99.90;;;;;;5070628;28;20435;-70
2022/09/21 12:01:50;;;;;;;0.20;0.20;;;21.30;99.90;;;;;;5069003;28;20533;-70
2022/09/21 12:04:38;;;;;;;0.38;0.38;;;21.50;99.90;;;;;;5069456;28;20466;-70
2022/09/21 12:07:43;;;;;;;0.20;0.20;;;21.70;99.90;;;;;;5069811;28;20427;-69
2022/09/21 12:10:31;;;;;;;0.30;0.30;;;20.70;99.90;;;;;;5070039;28;20439;-70
2022/09/21 12:13:01;;;;;;;0.28;0.28;;;20.70;99.90;;;;;;5069532;28;20424;-70
2022/09/21 12:15:43;;;;;;;0.25;0.25;;;21.30;99.90;;;;;;5070111;28;20427;-69
2022/09/21 12:18:52;;;;;;;0.25;0.25;;;20.40;99.90;;;;;;5069786;28;20419;-70
2022/09/21 12:21:29;;;;;;;0.20;0.20;;;19.90;99.90;;;;;;5069525;28;20426;-69
2022/09/21 12:24:21;;;;;;;0.20;0.20;;;20.40;99.90;;;;;;5075380;28;20442;-71
2022/09/21 12:26:55;;;;;;;0.30;0.30;;;21.10;99.90;;;;;;5076276;28;20479;-70
2022/09/21 12:29:29;;;;;;;0.20;0.20;;;21.10;99.90;;;;;;5076464;28;20890;-70
2022/09/21 12:32:26;;;;;;;0.20;0.20;;;21.00;99.90;;;;;;5076415;28;20424;-70
2022/09/21 12:35:04;;;;;;;0.20;0.20;;;21.30;99.90;;;;;;5055502;28;20439;-70
2022/09/21 12:37:50;;;;;;;1.10;0.20;;;21.60;99.90;;;;;;5056329;28;20433;-69
2022/09/21 12:40:37;;;;;;;0.30;0.30;;;21.40;99.90;;;;;;5056081;28;20465;-70
2022/09/21 12:43:22;;;;;;;0.20;0.20;;;21.80;99.90;;;;;;5054414;28;20435;-70
2022/09/21 12:46:07;;;;;;;0.22;0.22;;;22.30;99.90;;;;;;5056259;28;20795;-70
2022/09/21 12:48:38;;;;;;;0.20;0.20;;;22.00;99.90;;;;;;5056213;28;20456;-69
2022/09/21 12:51:23;;;;;;;0.40;0.40;;;21.50;99.90;;;;;;5056200;28;20443;-69
2022/09/21 12:53:56;;;;;;;0.10;0.10;;;21.40;99.90;;;;;;5056088;28;20433;-70
2022/09/21 12:56:28;;;;;;;0.40;0.40;;;22.10;99.90;;;;;;5056307;28;20799;-70
2022/09/21 12:59:24;;;;;;;0.30;0.30;;;21.90;99.90;;;;;;5055070;28;20951;-70
2022/09/21 13:02:23;;;;;;;0.60;0.25;;;22.30;99.90;;;;;;5055953;28;20436;-70
2022/09/21 13:05:10;;;;;;;0.20;0.20;;;22.30;99.30;;;;;;5055638;28;20478;-70
2022/09/21 13:07:48;;;;;;;0.30;0.30;;;22.40;99.80;;;;;;5067050;28;20450;-69
2022/09/21 13:10:38;;;;;;;0.20;0.20;;;22.60;99.50;;;;;;5074646;28;20427;-69
2022/09/21 13:13:25;;;;;;;0.25;0.25;;;22.00;98.60;;;;;;5074325;28;20445;-69
2022/09/21 13:15:52;;;;;;;0.20;0.20;;;22.50;97.80;;;;;;5076070;28;20932;-69
2022/09/21 13:18:27;;;;;;;0.20;0.20;;;22.50;97.70;;;;;;5075763;28;20423;-70
2022/09/21 13:20:58;;;;;;;0.30;0.30;;;22.70;98.90;;;;;;5074700;28;20438;-68
2022/09/21 13:23:32;;;;;;;0.30;0.30;;;22.90;98.80;;;;;;5075351;28;20938;-69
2022/09/21 13:26:10;;;;;;;0.20;0.20;;;22.00;98.70;;;;;;5075966;28;20427;-68
2022/09/21 13:29:00;;;;;;;0.20;0.20;;;21.10;98.60;;;;;;5075952;28;20427;-68
2022/09/21 13:31:59;;;;;;;0.70;0.20;;;20.70;99.40;;;;;;5059466;28;20507;-68
2022/09/21 13:34:32;;;;;;;0.20;0.20;;;21.30;98.70;;;;;;5052978;28;20440;-69
2022/09/21 13:37:14;;;;;;;0.28;0.28;;;22.30;98.40;;;;;;5052520;28;20490;-69
2022/09/21 13:39:49;;;;;;;0.30;0.30;;;22.90;98.20;;;;;;5051150;28;20452;-69